sensor_id;sensor_type;location;lat;lon;timestamp;P1;durP1;ratioP1;P2;durP2;ratioP2
42616;SDS011;28250;52.320;0.360;2022-09-21T00:01:04;9.35;;;4.95;;
42616;SDS011;28250;52.320;0.360;2022-09-21T00:03:31;7.03;;;3.72;;
42616;SDS011;28250;52.320;0.360;2022-09-21T00:06:04;7.47;;;4.67;;
42616;SDS011;28250;52.320;0.360;2022-09-21T00:08:33;6.93;;;3.92;;
42616;SDS011;28250;52.320;0.360;2022-09-21T00:11:00;7.30;;;3.90;;
42616;SDS011;28250;52.320;0.360;2022-09-21T00:13:29;6.57;;;3.97;;
42616;SDS011;28250;52.320;0.360;2022-09-21T00:15:58;10.00;;;4.80;;
42616;SDS011;28250;52.320;0.360;2022-09-21T00:18:26;9.48;;;6.22;;
42616;SDS011;28250;52.320;0.360;2022-09-21T00:20:53;13.65;;;7.18;;
42616;SDS011;28250;52.320;0.360;2022-09-21T00:23:20;12.27;;;6.97;;
42616;SDS011;28250;52.320;0.360;2022-09-21T00:25:46;14.70;;;7.50;;
42616;SDS011;28250;52.320;0.360;2022-09-21T00:28:13;14.67;;;7.23;;
42616;SDS011;28250;52.320;0.360;2022-09-21T00:30:39;14.90;;;7.97;;
42616;SDS011;28250;52.320;0.360;2022-09-21T00:33:06;14.80;;;7.32;;
42616;SDS011;28250;52.320;0.360;2022-09-21T00:35:33;14.10;;;6.00;;
42616;SDS011;28250;52.320;0.360;2022-09-21T00:38:00;12.37;;;6.90;;
42616;SDS011;28250;52.320;0.360;2022-09-21T00:40:28;11.25;;;6.07;;
42616;SDS011;28250;52.320;0.360;2022-09-21T00:45:48;13.15;;;5.80;;
42616;SDS011;28250;52.320;0.360;2022-09-21T00:48:17;9.48;;;5.65;;
42616;SDS011;28250;52.320;0.360;2022-09-21T00:50:46;8.57;;;4.97;;
42616;SDS011;28250;52.320;0.360;2022-09-21T00:53:18;9.52;;;5.13;;
42616;SDS011;28250;52.320;0.360;2022-09-21T00:55:46;10.95;;;5.72;;
42616;SDS011;28250;52.320;0.360;2022-09-21T00:58:18;11.05;;;5.97;;
42616;SDS011;28250;52.320;0.360;2022-09-21T01:00:55;10.25;;;4.65;;
42616;SDS011;28250;52.320;0.360;2022-09-21T01:03:24;6.93;;;4.38;;
42616;SDS011;28250;52.320;0.360;2022-09-21T01:05:53;8.23;;;5.15;;
42616;SDS011;28250;52.320;0.360;2022-09-21T01:08:21;7.30;;;4.32;;
42616;SDS011;28250;52.320;0.360;2022-09-21T01:16:15;8.32;;;4.30;;
42616;SDS011;28250;52.320;0.360;2022-09-21T01:18:58;7.25;;;5.28;;
42616;SDS011;28250;52.320;0.360;2022-09-21T01:31:12;8.13;;;4.50;;
42616;SDS011;28250;52.320;0.360;2022-09-21T01:33:46;7.18;;;3.78;;
42616;SDS011;28250;52.320;0.360;2022-09-21T01:36:19;7.78;;;4.18;;
42616;SDS011;28250;52.320;0.360;2022-09-21T01:38:51;8.57;;;5.47;;
42616;SDS011;28250;52.320;0.360;2022-09-21T01:41:24;9.00;;;4.32;;
42616;SDS011;28250;52.320;0.360;2022-09-21T01:43:56;8.23;;;4.30;;
42616;SDS011;28250;52.320;0.360;2022-09-21T01:46:33;7.03;;;3.85;;
42616;SDS011;28250;52.320;0.360;2022-09-21T01:49:04;8.18;;;4.90;;
42616;SDS011;28250;52.320;0.360;2022-09-21T01:51:40;9.37;;;4.23;;
42616;SDS011;28250;52.320;0.360;2022-09-21T01:54:16;7.30;;;4.30;;
42616;SDS011;28250;52.320;0.360;2022-09-21T01:57:01;6.90;;;4.57;;
42616;SDS011;28250;52.320;0.360;2022-09-21T01:59:39;9.00;;;4.82;;
42616;SDS011;28250;52.320;0.360;2022-09-21T02:02:45;10.48;;;4.78;;
42616;SDS011;28250;52.320;0.360;2022-09-21T02:05:18;9.35;;;4.63;;
42616;SDS011;28250;52.320;0.360;2022-09-21T02:07:47;7.97;;;4.60;;
42616;SDS011;28250;52.320;0.360;2022-09-21T02:10:21;11.50;;;4.47;;
42616;SDS011;28250;52.320;0.360;2022-09-21T02:12:59;8.20;;;4.80;;
42616;SDS011;28250;52.320;0.360;2022-09-21T02:15:42;8.80;;;5.28;;
42616;SDS011;28250;52.320;0.360;2022-09-21T02:32:58;7.85;;;4.85;;
42616;SDS011;28250;52.320;0.360;2022-09-21T02:38:39;10.32;;;5.75;;
42616;SDS011;28250;52.320;0.360;2022-09-21T02:41:15;7.85;;;4.82;;
42616;SDS011;28250;52.320;0.360;2022-09-21T02:46:50;10.60;;;5.25;;
42616;SDS011;28250;52.320;0.360;2022-09-21T02:49:25;8.60;;;5.53;;
42616;SDS011;28250;52.320;0.360;2022-09-21T02:51:59;9.82;;;5.75;;
42616;SDS011;28250;52.320;0.360;2022-09-21T02:54:35;9.02;;;5.10;;
42616;SDS011;28250;52.320;0.360;2022-09-21T02:57:03;9.85;;;5.40;;
42616;SDS011;28250;52.320;0.360;2022-09-21T02:59:31;9.38;;;5.97;;
42616;SDS011;28250;52.320;0.360;2022-09-21T03:01:59;11.00;;;5.82;;
42616;SDS011;28250;52.320;0.360;2022-09-21T03:04:25;14.85;;;6.28;;
42616;SDS011;28250;52.320;0.360;2022-09-21T03:06:52;10.65;;;6.03;;
42616;SDS011;28250;52.320;0.360;2022-09-21T03:09:19;10.95;;;5.93;;
42616;SDS011;28250;52.320;0.360;2022-09-21T03:11:49;10.60;;;6.32;;
42616;SDS011;28250;52.320;0.360;2022-09-21T03:14:16;9.30;;;5.32;;
42616;SDS011;28250;52.320;0.360;2022-09-21T03:16:43;14.10;;;6.38;;
42616;SDS011;28250;52.320;0.360;2022-09-21T03:19:10;14.50;;;6.07;;
42616;SDS011;28250;52.320;0.360;2022-09-21T03:21:37;13.52;;;7.28;;
42616;SDS011;28250;52.320;0.360;2022-09-21T03:24:04;13.48;;;7.72;;
42616;SDS011;28250;52.320;0.360;2022-09-21T03:26:31;16.08;;;8.20;;
42616;SDS011;28250;52.320;0.360;2022-09-21T03:28:58;15.15;;;7.05;;
42616;SDS011;28250;52.320;0.360;2022-09-21T03:31:25;13.68;;;7.50;;
42616;SDS011;28250;52.320;0.360;2022-09-21T03:33:52;9.70;;;6.43;;
42616;SDS011;28250;52.320;0.360;2022-09-21T03:36:19;10.37;;;5.90;;
42616;SDS011;28250;52.320;0.360;2022-09-21T03:38:45;12.27;;;6.97;;
42616;SDS011;28250;52.320;0.360;2022-09-21T03:41:12;13.65;;;7.43;;
42616;SDS011;28250;52.320;0.360;2022-09-21T03:43:39;13.77;;;6.68;;
42616;SDS011;28250;52.320;0.360;2022-09-21T03:46:06;10.10;;;5.55;;
42616;SDS011;28250;52.320;0.360;2022-09-21T03:48:33;10.67;;;6.00;;
42616;SDS011;28250;52.320;0.360;2022-09-21T03:50:59;10.25;;;6.15;;
42616;SDS011;28250;52.320;0.360;2022-09-21T03:53:26;11.20;;;6.07;;
42616;SDS011;28250;52.320;0.360;2022-09-21T03:55:53;8.90;;;5.85;;
42616;SDS011;28250;52.320;0.360;2022-09-21T03:58:19;9.07;;;5.75;;
42616;SDS011;28250;52.320;0.360;2022-09-21T04:00:46;12.63;;;6.23;;
42616;SDS011;28250;52.320;0.360;2022-09-21T04:03:13;9.53;;;6.17;;
42616;SDS011;28250;52.320;0.360;2022-09-21T04:05:39;10.13;;;5.93;;
42616;SDS011;28250;52.320;0.360;2022-09-21T04:08:06;9.30;;;6.30;;
42616;SDS011;28250;52.320;0.360;2022-09-21T04:10:33;10.40;;;6.47;;
42616;SDS011;28250;52.320;0.360;2022-09-21T04:13:00;10.75;;;5.97;;
42616;SDS011;28250;52.320;0.360;2022-09-21T04:15:28;11.70;;;6.00;;
42616;SDS011;28250;52.320;0.360;2022-09-21T04:17:56;11.55;;;6.50;;
42616;SDS011;28250;52.320;0.360;2022-09-21T04:20:23;10.40;;;6.40;;
42616;SDS011;28250;52.320;0.360;2022-09-21T04:22:51;12.32;;;7.03;;
42616;SDS011;28250;52.320;0.360;2022-09-21T04:25:18;11.93;;;6.15;;
42616;SDS011;28250;52.320;0.360;2022-09-21T04:27:45;12.18;;;6.85;;
42616;SDS011;28250;52.320;0.360;2022-09-21T04:30:12;11.43;;;6.05;;
42616;SDS011;28250;52.320;0.360;2022-09-21T04:32:40;8.98;;;5.85;;
42616;SDS011;28250;52.320;0.360;2022-09-21T04:35:07;11.73;;;7.10;;
42616;SDS011;28250;52.320;0.360;2022-09-21T04:37:35;13.18;;;6.70;;
42616;SDS011;28250;52.320;0.360;2022-09-21T04:40:02;12.32;;;6.63;;
42616;SDS011;28250;52.320;0.360;2022-09-21T04:42:30;9.75;;;6.18;;
42616;SDS011;28250;52.320;0.360;2022-09-21T04:44:56;13.82;;;6.50;;
42616;SDS011;28250;52.320;0.360;2022-09-21T04:47:23;10.60;;;6.03;;
42616;SDS011;28250;52.320;0.360;2022-09-21T04:49:50;9.98;;;5.97;;
42616;SDS011;28250;52.320;0.360;2022-09-21T04:52:18;12.38;;;6.30;;
42616;SDS011;28250;52.320;0.360;2022-09-21T04:54:45;9.10;;;5.70;;
42616;SDS011;28250;52.320;0.360;2022-09-21T04:59:39;10.90;;;6.38;;
42616;SDS011;28250;52.320;0.360;2022-09-21T05:02:06;8.90;;;4.80;;
42616;SDS011;28250;52.320;0.360;2022-09-21T05:04:33;9.48;;;5.57;;
42616;SDS011;28250;52.320;0.360;2022-09-21T05:07:00;9.93;;;6.00;;
42616;SDS011;28250;52.320;0.360;2022-09-21T05:09:26;14.50;;;6.93;;
42616;SDS011;28250;52.320;0.360;2022-09-21T05:12:11;11.35;;;6.78;;
42616;SDS011;28250;52.320;0.360;2022-09-21T05:14:57;10.15;;;6.90;;
42616;SDS011;28250;52.320;0.360;2022-09-21T05:17:23;10.60;;;5.23;;
42616;SDS011;28250;52.320;0.360;2022-09-21T05:19:50;7.55;;;5.10;;
42616;SDS011;28250;52.320;0.360;2022-09-21T05:22:18;8.13;;;4.80;;
42616;SDS011;28250;52.320;0.360;2022-09-21T05:24:45;11.00;;;6.63;;
42616;SDS011;28250;52.320;0.360;2022-09-21T05:27:12;13.13;;;7.13;;
42616;SDS011;28250;52.320;0.360;2022-09-21T05:29:39;11.25;;;6.85;;
42616;SDS011;28250;52.320;0.360;2022-09-21T05:34:43;12.27;;;7.00;;
42616;SDS011;28250;52.320;0.360;2022-09-21T05:37:38;11.82;;;7.30;;
42616;SDS011;28250;52.320;0.360;2022-09-21T05:40:30;13.52;;;7.15;;
42616;SDS011;28250;52.320;0.360;2022-09-21T05:42:57;11.68;;;6.90;;
42616;SDS011;28250;52.320;0.360;2022-09-21T05:45:24;10.52;;;5.80;;
42616;SDS011;28250;52.320;0.360;2022-09-21T05:50:28;11.00;;;6.60;;
42616;SDS011;28250;52.320;0.360;2022-09-21T05:55:59;8.35;;;5.28;;
42616;SDS011;28250;52.320;0.360;2022-09-21T05:58:36;12.45;;;6.93;;
42616;SDS011;28250;52.320;0.360;2022-09-21T06:01:39;12.82;;;7.00;;
42616;SDS011;28250;52.320;0.360;2022-09-21T06:04:44;11.73;;;8.18;;
42616;SDS011;28250;52.320;0.360;2022-09-21T06:07:14;12.80;;;7.45;;
42616;SDS011;28250;52.320;0.360;2022-09-21T06:09:41;15.77;;;8.23;;
42616;SDS011;28250;52.320;0.360;2022-09-21T06:12:07;12.48;;;8.07;;
42616;SDS011;28250;52.320;0.360;2022-09-21T06:14:36;17.17;;;10.00;;
42616;SDS011;28250;52.320;0.360;2022-09-21T06:17:03;15.88;;;9.27;;
42616;SDS011;28250;52.320;0.360;2022-09-21T06:19:29;14.30;;;8.07;;
42616;SDS011;28250;52.320;0.360;2022-09-21T06:21:56;13.80;;;8.82;;
42616;SDS011;28250;52.320;0.360;2022-09-21T06:24:22;12.00;;;6.78;;
42616;SDS011;28250;52.320;0.360;2022-09-21T06:26:49;14.47;;;7.77;;
42616;SDS011;28250;52.320;0.360;2022-09-21T06:29:17;7.45;;;4.95;;
42616;SDS011;28250;52.320;0.360;2022-09-21T06:31:48;11.43;;;5.88;;
42616;SDS011;28250;52.320;0.360;2022-09-21T06:34:16;9.30;;;6.13;;
42616;SDS011;28250;52.320;0.360;2022-09-21T06:36:43;16.98;;;7.22;;
42616;SDS011;28250;52.320;0.360;2022-09-21T06:39:10;13.85;;;7.53;;
42616;SDS011;28250;52.320;0.360;2022-09-21T06:41:37;12.50;;;7.53;;
42616;SDS011;28250;52.320;0.360;2022-09-21T06:44:08;12.55;;;6.28;;
42616;SDS011;28250;52.320;0.360;2022-09-21T06:46:35;13.88;;;7.50;;
42616;SDS011;28250;52.320;0.360;2022-09-21T06:49:02;13.90;;;7.57;;
42616;SDS011;28250;52.320;0.360;2022-09-21T06:51:29;12.40;;;8.30;;
42616;SDS011;28250;52.320;0.360;2022-09-21T06:53:56;13.52;;;7.60;;
42616;SDS011;28250;52.320;0.360;2022-09-21T06:58:51;15.00;;;7.70;;
42616;SDS011;28250;52.320;0.360;2022-09-21T07:01:17;13.48;;;7.65;;
42616;SDS011;28250;52.320;0.360;2022-09-21T07:03:47;13.55;;;7.13;;
42616;SDS011;28250;52.320;0.360;2022-09-21T07:06:16;11.57;;;7.22;;
42616;SDS011;28250;52.320;0.360;2022-09-21T07:08:43;8.68;;;5.80;;
42616;SDS011;28250;52.320;0.360;2022-09-21T07:11:10;9.15;;;6.03;;
42616;SDS011;28250;52.320;0.360;2022-09-21T07:13:39;16.30;;;7.40;;
42616;SDS011;28250;52.320;0.360;2022-09-21T07:16:07;12.60;;;6.07;;
42616;SDS011;28250;52.320;0.360;2022-09-21T07:21:04;10.65;;;6.82;;
42616;SDS011;28250;52.320;0.360;2022-09-21T07:23:33;9.82;;;5.75;;
42616;SDS011;28250;52.320;0.360;2022-09-21T07:26:02;11.82;;;7.00;;
42616;SDS011;28250;52.320;0.360;2022-09-21T07:28:32;15.70;;;7.95;;
42616;SDS011;28250;52.320;0.360;2022-09-21T07:31:06;12.75;;;8.48;;
42616;SDS011;28250;52.320;0.360;2022-09-21T07:33:36;11.88;;;7.20;;
42616;SDS011;28250;52.320;0.360;2022-09-21T07:36:03;10.57;;;6.50;;
42616;SDS011;28250;52.320;0.360;2022-09-21T07:38:36;9.75;;;5.57;;
42616;SDS011;28250;52.320;0.360;2022-09-21T07:41:08;19.75;;;10.07;;
42616;SDS011;28250;52.320;0.360;2022-09-21T07:43:36;22.75;;;8.65;;
42616;SDS011;28250;52.320;0.360;2022-09-21T07:46:06;12.02;;;7.63;;
42616;SDS011;28250;52.320;0.360;2022-09-21T07:48:34;10.13;;;6.55;;
42616;SDS011;28250;52.320;0.360;2022-09-21T07:53:32;8.95;;;5.35;;
42616;SDS011;28250;52.320;0.360;2022-09-21T07:56:01;12.80;;;6.85;;
42616;SDS011;28250;52.320;0.360;2022-09-21T07:58:30;11.45;;;6.55;;
42616;SDS011;28250;52.320;0.360;2022-09-21T08:01:15;10.43;;;6.40;;
42616;SDS011;28250;52.320;0.360;2022-09-21T08:03:42;8.83;;;5.97;;
42616;SDS011;28250;52.320;0.360;2022-09-21T08:06:09;7.15;;;5.28;;
42616;SDS011;28250;52.320;0.360;2022-09-21T08:08:35;10.00;;;5.70;;
42616;SDS011;28250;52.320;0.360;2022-09-21T08:11:03;10.57;;;5.50;;
42616;SDS011;28250;52.320;0.360;2022-09-21T08:13:31;11.98;;;7.25;;
42616;SDS011;28250;52.320;0.360;2022-09-21T08:15:58;12.30;;;6.20;;
42616;SDS011;28250;52.320;0.360;2022-09-21T08:18:26;12.77;;;6.43;;
42616;SDS011;28250;52.320;0.360;2022-09-21T08:20:55;9.45;;;6.38;;
42616;SDS011;28250;52.320;0.360;2022-09-21T08:23:23;12.50;;;7.80;;
42616;SDS011;28250;52.320;0.360;2022-09-21T08:25:50;10.27;;;6.55;;
42616;SDS011;28250;52.320;0.360;2022-09-21T08:28:17;11.33;;;6.47;;
42616;SDS011;28250;52.320;0.360;2022-09-21T08:30:44;10.32;;;6.25;;
42616;SDS011;28250;52.320;0.360;2022-09-21T08:33:10;11.27;;;6.23;;
42616;SDS011;28250;52.320;0.360;2022-09-21T08:35:37;9.13;;;4.87;;
42616;SDS011;28250;52.320;0.360;2022-09-21T08:38:04;10.43;;;5.53;;
42616;SDS011;28250;52.320;0.360;2022-09-21T08:40:31;10.70;;;5.93;;
42616;SDS011;28250;52.320;0.360;2022-09-21T08:43:01;7.80;;;4.97;;
42616;SDS011;28250;52.320;0.360;2022-09-21T08:45:32;7.72;;;4.72;;
42616;SDS011;28250;52.320;0.360;2022-09-21T08:48:05;14.23;;;6.72;;
42616;SDS011;28250;52.320;0.360;2022-09-21T08:50:48;15.50;;;6.38;;
42616;SDS011;28250;52.320;0.360;2022-09-21T08:53:21;8.80;;;4.95;;
42616;SDS011;28250;52.320;0.360;2022-09-21T08:55:57;11.40;;;6.80;;
42616;SDS011;28250;52.320;0.360;2022-09-21T08:58:25;13.70;;;7.28;;
42616;SDS011;28250;52.320;0.360;2022-09-21T09:24:02;11.13;;;5.80;;
42616;SDS011;28250;52.320;0.360;2022-09-21T09:26:35;8.60;;;5.22;;
42616;SDS011;28250;52.320;0.360;2022-09-21T09:34:39;8.68;;;4.70;;
42616;SDS011;28250;52.320;0.360;2022-09-21T09:37:15;8.02;;;5.20;;
42616;SDS011;28250;52.320;0.360;2022-09-21T09:39:50;8.30;;;5.15;;
42616;SDS011;28250;52.320;0.360;2022-09-21T09:48:20;8.88;;;4.32;;
42616;SDS011;28250;52.320;0.360;2022-09-21T09:51:08;11.65;;;5.63;;
42616;SDS011;28250;52.320;0.360;2022-09-21T09:53:37;8.10;;;5.00;;
42616;SDS011;28250;52.320;0.360;2022-09-21T09:56:04;5.35;;;3.58;;
42616;SDS011;28250;52.320;0.360;2022-09-21T10:01:09;5.85;;;3.90;;
42616;SDS011;28250;52.320;0.360;2022-09-21T10:04:04;7.57;;;3.85;;
42616;SDS011;28250;52.320;0.360;2022-09-21T10:06:33;6.53;;;4.20;;
42616;SDS011;28250;52.320;0.360;2022-09-21T10:09:01;6.20;;;4.13;;
42616;SDS011;28250;52.320;0.360;2022-09-21T10:12:03;7.05;;;4.03;;
42616;SDS011;28250;52.320;0.360;2022-09-21T10:14:47;8.18;;;3.65;;
42616;SDS011;28250;52.320;0.360;2022-09-21T10:17:17;6.03;;;3.67;;
42616;SDS011;28250;52.320;0.360;2022-09-21T10:19:45;8.13;;;3.58;;
42616;SDS011;28250;52.320;0.360;2022-09-21T10:22:14;9.80;;;4.20;;
42616;SDS011;28250;52.320;0.360;2022-09-21T10:24:45;5.72;;;3.25;;
42616;SDS011;28250;52.320;0.360;2022-09-21T10:27:17;7.20;;;4.03;;
42616;SDS011;28250;52.320;0.360;2022-09-21T10:29:53;6.90;;;3.30;;
42616;SDS011;28250;52.320;0.360;2022-09-21T10:32:21;5.90;;;3.38;;
42616;SDS011;28250;52.320;0.360;2022-09-21T10:40:21;6.22;;;4.20;;
42616;SDS011;28250;52.320;0.360;2022-09-21T10:42:51;7.80;;;3.75;;
42616;SDS011;28250;52.320;0.360;2022-09-21T10:50:24;7.45;;;3.92;;
42616;SDS011;28250;52.320;0.360;2022-09-21T10:53:12;5.88;;;3.78;;
42616;SDS011;28250;52.320;0.360;2022-09-21T10:55:49;6.18;;;3.67;;
42616;SDS011;28250;52.320;0.360;2022-09-21T10:58:37;5.03;;;3.60;;
42616;SDS011;28250;52.320;0.360;2022-09-21T11:01:11;7.03;;;4.15;;
42616;SDS011;28250;52.320;0.360;2022-09-21T11:09:18;7.20;;;4.60;;
42616;SDS011;28250;52.320;0.360;2022-09-21T11:11:52;8.20;;;4.85;;
42616;SDS011;28250;52.320;0.360;2022-09-21T11:14:55;8.07;;;3.92;;
42616;SDS011;28250;52.320;0.360;2022-09-21T11:17:44;11.45;;;4.82;;
42616;SDS011;28250;52.320;0.360;2022-09-21T11:23:12;8.45;;;5.55;;
42616;SDS011;28250;52.320;0.360;2022-09-21T11:29:11;12.57;;;6.25;;
42616;SDS011;28250;52.320;0.360;2022-09-21T11:54:08;14.50;;;5.88;;
42616;SDS011;28250;52.320;0.360;2022-09-21T12:06:04;9.50;;;5.95;;
42616;SDS011;28250;52.320;0.360;2022-09-21T12:09:02;8.13;;;4.30;;
42616;SDS011;28250;52.320;0.360;2022-09-21T12:12:02;8.07;;;5.28;;
42616;SDS011;28250;52.320;0.360;2022-09-21T12:23:01;9.60;;;4.30;;
42616;SDS011;28250;52.320;0.360;2022-09-21T12:25:42;9.10;;;4.53;;
42616;SDS011;28250;52.320;0.360;2022-09-21T12:28:17;6.00;;;4.15;;
42616;SDS011;28250;52.320;0.360;2022-09-21T12:30:52;4.82;;;3.72;;
42616;SDS011;28250;52.320;0.360;2022-09-21T12:33:33;6.65;;;4.00;;
42616;SDS011;28250;52.320;0.360;2022-09-21T12:36:11;9.45;;;3.70;;
42616;SDS011;28250;52.320;0.360;2022-09-21T12:44:23;5.47;;;3.92;;
42616;SDS011;28250;52.320;0.360;2022-09-21T12:47:24;8.32;;;4.15;;
42616;SDS011;28250;52.320;0.360;2022-09-21T12:49:55;4.97;;;3.97;;
42616;SDS011;28250;52.320;0.360;2022-09-21T12:52:31;5.13;;;3.30;;
42616;SDS011;28250;52.320;0.360;2022-09-21T12:58:14;7.43;;;3.90;;
42616;SDS011;28250;52.320;0.360;2022-09-21T13:01:09;6.00;;;3.33;;
42616;SDS011;28250;52.320;0.360;2022-09-21T13:06:56;6.13;;;3.38;;
42616;SDS011;28250;52.320;0.360;2022-09-21T13:09:54;6.00;;;3.50;;
42616;SDS011;28250;52.320;0.360;2022-09-21T13:12:23;5.38;;;3.22;;
42616;SDS011;28250;52.320;0.360;2022-09-21T13:15:00;5.30;;;3.90;;
42616;SDS011;28250;52.320;0.360;2022-09-21T13:17:37;4.53;;;3.05;;
42616;SDS011;28250;52.320;0.360;2022-09-21T13:20:15;7.22;;;3.88;;
42616;SDS011;28250;52.320;0.360;2022-09-21T13:22:44;7.00;;;3.97;;
42616;SDS011;28250;52.320;0.360;2022-09-21T13:30:41;5.78;;;3.85;;
42616;SDS011;28250;52.320;0.360;2022-09-21T13:36:07;6.53;;;3.25;;
42616;SDS011;28250;52.320;0.360;2022-09-21T13:39:02;5.20;;;3.10;;
42616;SDS011;28250;52.320;0.360;2022-09-21T13:41:44;7.20;;;3.17;;
42616;SDS011;28250;52.320;0.360;2022-09-21T13:46:58;6.35;;;2.60;;
42616;SDS011;28250;52.320;0.360;2022-09-21T13:51:58;3.97;;;2.83;;
42616;SDS011;28250;52.320;0.360;2022-09-21T13:57:15;4.15;;;2.75;;
42616;SDS011;28250;52.320;0.360;2022-09-21T13:59:55;2.90;;;2.05;;
42616;SDS011;28250;52.320;0.360;2022-09-21T14:02:45;5.60;;;2.70;;
42616;SDS011;28250;52.320;0.360;2022-09-21T14:07:57;3.15;;;2.50;;
42616;SDS011;28250;52.320;0.360;2022-09-21T14:10:31;4.25;;;2.22;;
42616;SDS011;28250;52.320;0.360;2022-09-21T14:13:02;4.13;;;2.40;;
42616;SDS011;28250;52.320;0.360;2022-09-21T14:18:59;2.20;;;1.88;;
42616;SDS011;28250;52.320;0.360;2022-09-21T14:21:29;1.70;;;1.60;;
42616;SDS011;28250;52.320;0.360;2022-09-21T14:26:47;2.25;;;1.60;;
42616;SDS011;28250;52.320;0.360;2022-09-21T14:29:55;2.08;;;1.60;;
42616;SDS011;28250;52.320;0.360;2022-09-21T14:32:52;3.05;;;1.73;;
42616;SDS011;28250;52.320;0.360;2022-09-21T14:35:25;2.13;;;1.33;;
42616;SDS011;28250;52.320;0.360;2022-09-21T14:37:58;3.17;;;1.65;;
42616;SDS011;28250;52.320;0.360;2022-09-21T14:40:30;2.80;;;1.83;;
42616;SDS011;28250;52.320;0.360;2022-09-21T14:43:06;2.45;;;1.77;;
42616;SDS011;28250;52.320;0.360;2022-09-21T15:00:22;1.90;;;1.40;;
42616;SDS011;28250;52.320;0.360;2022-09-21T15:03:08;2.10;;;1.17;;
42616;SDS011;28250;52.320;0.360;2022-09-21T15:15:22;2.75;;;1.52;;
42616;SDS011;28250;52.320;0.360;2022-09-21T15:18:11;3.70;;;2.05;;
42616;SDS011;28250;52.320;0.360;2022-09-21T15:20:53;2.78;;;1.90;;
42616;SDS011;28250;52.320;0.360;2022-09-21T15:23:28;2.67;;;1.73;;
42616;SDS011;28250;52.320;0.360;2022-09-21T15:26:26;1.75;;;1.63;;
42616;SDS011;28250;52.320;0.360;2022-09-21T15:28:56;3.38;;;1.73;;
42616;SDS011;28250;52.320;0.360;2022-09-21T15:31:29;2.70;;;1.80;;
42616;SDS011;28250;52.320;0.360;2022-09-21T15:33:59;2.20;;;1.77;;
42616;SDS011;28250;52.320;0.360;2022-09-21T15:36:28;2.80;;;1.55;;
42616;SDS011;28250;52.320;0.360;2022-09-21T15:38:55;1.63;;;1.30;;
42616;SDS011;28250;52.320;0.360;2022-09-21T15:46:42;3.55;;;1.58;;
42616;SDS011;28250;52.320;0.360;2022-09-21T15:49:15;3.45;;;1.80;;
42616;SDS011;28250;52.320;0.360;2022-09-21T15:51:49;2.28;;;1.50;;
42616;SDS011;28250;52.320;0.360;2022-09-21T15:54:29;3.00;;;1.70;;
42616;SDS011;28250;52.320;0.360;2022-09-21T15:59:59;2.55;;;1.88;;
42616;SDS011;28250;52.320;0.360;2022-09-21T16:02:32;6.32;;;1.90;;
42616;SDS011;28250;52.320;0.360;2022-09-21T16:05:05;2.20;;;1.50;;
42616;SDS011;28250;52.320;0.360;2022-09-21T16:07:38;2.67;;;1.60;;
42616;SDS011;28250;52.320;0.360;2022-09-21T16:16:15;2.13;;;1.60;;
42616;SDS011;28250;52.320;0.360;2022-09-21T16:18:49;3.78;;;1.80;;
42616;SDS011;28250;52.320;0.360;2022-09-21T16:21:20;2.67;;;1.50;;
42616;SDS011;28250;52.320;0.360;2022-09-21T16:23:57;1.60;;;1.48;;
42616;SDS011;28250;52.320;0.360;2022-09-21T16:26:53;1.70;;;1.60;;
42616;SDS011;28250;52.320;0.360;2022-09-21T16:29:23;2.05;;;1.63;;
42616;SDS011;28250;52.320;0.360;2022-09-21T16:34:42;2.05;;;1.85;;
42616;SDS011;28250;52.320;0.360;2022-09-21T16:39:58;2.40;;;1.80;;
42616;SDS011;28250;52.320;0.360;2022-09-21T16:42:27;2.30;;;1.92;;
42616;SDS011;28250;52.320;0.360;2022-09-21T16:44:57;3.17;;;1.98;;
42616;SDS011;28250;52.320;0.360;2022-09-21T16:47:26;2.92;;;1.90;;
42616;SDS011;28250;52.320;0.360;2022-09-21T16:49:54;2.92;;;1.80;;
42616;SDS011;28250;52.320;0.360;2022-09-21T16:52:26;3.05;;;1.88;;
42616;SDS011;28250;52.320;0.360;2022-09-21T16:54:54;3.40;;;2.03;;
42616;SDS011;28250;52.320;0.360;2022-09-21T16:57:23;2.13;;;1.77;;
42616;SDS011;28250;52.320;0.360;2022-09-21T16:59:51;3.75;;;2.05;;
42616;SDS011;28250;52.320;0.360;2022-09-21T17:02:19;4.22;;;2.20;;
42616;SDS011;28250;52.320;0.360;2022-09-21T17:04:45;13.13;;;3.95;;
42616;SDS011;28250;52.320;0.360;2022-09-21T17:07:12;6.97;;;4.05;;
42616;SDS011;28250;52.320;0.360;2022-09-21T17:09:42;8.73;;;4.15;;
42616;SDS011;28250;52.320;0.360;2022-09-21T17:12:13;11.60;;;4.82;;
42616;SDS011;28250;52.320;0.360;2022-09-21T17:14:42;9.57;;;4.80;;
42616;SDS011;28250;52.320;0.360;2022-09-21T17:17:11;9.63;;;4.45;;
42616;SDS011;28250;52.320;0.360;2022-09-21T17:19:42;8.52;;;4.57;;
42616;SDS011;28250;52.320;0.360;2022-09-21T17:22:11;10.57;;;5.18;;
42616;SDS011;28250;52.320;0.360;2022-09-21T17:24:42;8.48;;;4.10;;
42616;SDS011;28250;52.320;0.360;2022-09-21T17:27:12;7.65;;;3.83;;
42616;SDS011;28250;52.320;0.360;2022-09-21T17:29:43;6.97;;;3.80;;
42616;SDS011;28250;52.320;0.360;2022-09-21T17:32:13;5.47;;;3.35;;
42616;SDS011;28250;52.320;0.360;2022-09-21T17:34:44;6.88;;;3.33;;
42616;SDS011;28250;52.320;0.360;2022-09-21T17:37:26;7.15;;;3.20;;
42616;SDS011;28250;52.320;0.360;2022-09-21T17:39:53;5.43;;;2.80;;
42616;SDS011;28250;52.320;0.360;2022-09-21T17:42:20;5.22;;;2.80;;
42616;SDS011;28250;52.320;0.360;2022-09-21T17:47:26;5.65;;;2.72;;
42616;SDS011;28250;52.320;0.360;2022-09-21T17:50:06;4.72;;;2.60;;
42616;SDS011;28250;52.320;0.360;2022-09-21T17:52:53;3.05;;;2.00;;
42616;SDS011;28250;52.320;0.360;2022-09-21T17:55:43;7.43;;;3.13;;
42616;SDS011;28250;52.320;0.360;2022-09-21T18:03:51;4.28;;;2.90;;
42616;SDS011;28250;52.320;0.360;2022-09-21T18:06:19;8.30;;;2.70;;
42616;SDS011;28250;52.320;0.360;2022-09-21T18:08:47;3.38;;;2.40;;
42616;SDS011;28250;52.320;0.360;2022-09-21T18:17:45;2.92;;;2.35;;
42616;SDS011;28250;52.320;0.360;2022-09-21T18:20:59;3.72;;;2.05;;
42616;SDS011;28250;52.320;0.360;2022-09-21T18:23:38;3.00;;;2.20;;
42616;SDS011;28250;52.320;0.360;2022-09-21T18:26:31;3.95;;;2.25;;
42616;SDS011;28250;52.320;0.360;2022-09-21T18:28:59;2.95;;;2.33;;
42616;SDS011;28250;52.320;0.360;2022-09-21T18:42:39;4.95;;;2.45;;
42616;SDS011;28250;52.320;0.360;2022-09-21T18:45:23;4.15;;;2.70;;
42616;SDS011;28250;52.320;0.360;2022-09-21T18:53:49;5.35;;;2.55;;
42616;SDS011;28250;52.320;0.360;2022-09-21T18:56:22;5.53;;;2.80;;
42616;SDS011;28250;52.320;0.360;2022-09-21T18:58:52;6.93;;;2.88;;
42616;SDS011;28250;52.320;0.360;2022-09-21T19:01:22;5.28;;;2.17;;
42616;SDS011;28250;52.320;0.360;2022-09-21T19:03:51;6.70;;;2.10;;
42616;SDS011;28250;52.320;0.360;2022-09-21T19:26:09;3.33;;;1.40;;
42616;SDS011;28250;52.320;0.360;2022-09-21T19:31:55;6.40;;;1.77;;
42616;SDS011;28250;52.320;0.360;2022-09-21T19:34:22;4.18;;;1.40;;
42616;SDS011;28250;52.320;0.360;2022-09-21T19:36:49;4.97;;;2.10;;
42616;SDS011;28250;52.320;0.360;2022-09-21T19:39:16;4.50;;;1.92;;
42616;SDS011;28250;52.320;0.360;2022-09-21T19:49:51;6.78;;;2.08;;
42616;SDS011;28250;52.320;0.360;2022-09-21T19:52:28;7.97;;;1.90;;
42616;SDS011;28250;52.320;0.360;2022-09-21T19:54:59;6.20;;;1.63;;
42616;SDS011;28250;52.320;0.360;2022-09-21T19:57:45;6.45;;;1.70;;
42616;SDS011;28250;52.320;0.360;2022-09-21T20:00:31;3.20;;;1.50;;
42616;SDS011;28250;52.320;0.360;2022-09-21T20:16:56;4.28;;;1.55;;
42616;SDS011;28250;52.320;0.360;2022-09-21T20:21:58;2.60;;;1.40;;
42616;SDS011;28250;52.320;0.360;2022-09-21T20:24:38;2.78;;;1.25;;
42616;SDS011;28250;52.320;0.360;2022-09-21T20:27:21;2.00;;;1.00;;
42616;SDS011;28250;52.320;0.360;2022-09-21T20:30:10;3.30;;;1.67;;
42616;SDS011;28250;52.320;0.360;2022-09-21T20:32:40;4.22;;;1.00;;